createdAt,value
2022-10-22T00:01:28.481Z,16.60
2022-10-22T00:04:34.446Z,16.45
2022-10-22T00:07:37.924Z,15.77
2022-10-22T00:10:40.527Z,16.97
2022-10-22T00:13:43.349Z,17.60
2022-10-22T00:16:45.622Z,15.43
2022-10-22T00:19:47.777Z,16.40
2022-10-22T00:22:53.278Z,15.32
2022-10-22T00:25:55.658Z,17.53
2022-10-22T00:28:57.785Z,17.48
2022-10-22T00:32:00.042Z,16.52
2022-10-22T00:35:02.253Z,18.10
2022-10-22T00:38:05.208Z,15.63
2022-10-22T00:41:07.673Z,19.20
2022-10-22T00:44:30.022Z,18.67
2022-10-22T00:47:43.096Z,17.73
2022-10-22T00:50:47.854Z,19.13
2022-10-22T00:53:53.461Z,19.95
2022-10-22T00:56:55.714Z,15.93
2022-10-22T00:59:57.982Z,17.17
2022-10-22T01:03:00.407Z,15.20
2022-10-22T01:06:04.911Z,15.73
2022-10-22T01:09:07.330Z,17.73
2022-10-22T01:12:23.358Z,15.57
2022-10-22T01:16:01.203Z,15.68
2022-10-22T01:19:23.945Z,14.85
2022-10-22T01:22:38.303Z,16.95
2022-10-22T01:25:49.627Z,16.27
2022-10-22T01:29:10.706Z,15.10
2022-10-22T01:32:14.734Z,17.67
2022-10-22T01:35:19.427Z,14.30
2022-10-22T01:38:23.315Z,17.08
2022-10-22T01:41:27.206Z,15.43
2022-10-22T01:44:30.822Z,16.20
2022-10-22T01:47:39.398Z,15.50
2022-10-22T01:50:57.285Z,17.02
2022-10-22T01:54:18.127Z,15.52
2022-10-22T01:57:23.469Z,15.95
2022-10-22T02:00:25.914Z,13.73
2022-10-22T02:03:38.921Z,16.55
2022-10-22T02:06:42.889Z,15.63
2022-10-22T02:09:45.735Z,18.55
2022-10-22T02:12:50.432Z,19.35
2022-10-22T02:15:53.004Z,14.13
2022-10-22T02:18:57.114Z,15.35
2022-10-22T02:21:59.526Z,15.43
2022-10-22T02:25:01.739Z,16.55
2022-10-22T02:28:07.567Z,14.63
2022-10-22T02:31:13.580Z,15.53
2022-10-22T02:34:19.695Z,17.92
2022-10-22T02:37:22.232Z,15.57
2022-10-22T02:40:25.014Z,15.63
2022-10-22T02:43:28.882Z,14.48
2022-10-22T02:46:31.142Z,17.00
2022-10-22T02:49:33.372Z,14.48
2022-10-22T02:52:35.613Z,15.07
2022-10-22T02:55:37.808Z,15.55
2022-10-22T02:58:39.918Z,14.70
2022-10-22T03:01:42.132Z,17.20
2022-10-22T03:04:44.412Z,19.35
2022-10-22T03:07:46.583Z,20.20
2022-10-22T03:10:48.721Z,18.85
2022-10-22T03:13:50.880Z,18.63
2022-10-22T03:16:53.024Z,17.20
2022-10-22T03:19:55.166Z,17.02
2022-10-22T03:22:57.648Z,17.38
2022-10-22T03:29:07.584Z,16.33
2022-10-22T03:32:09.794Z,17.53
2022-10-22T03:35:12.216Z,16.48
2022-10-22T03:38:14.645Z,19.02
2022-10-22T03:41:16.954Z,20.63
2022-10-22T03:44:19.844Z,17.35
2022-10-22T03:47:24.464Z,16.10
2022-10-22T03:50:26.688Z,18.38
2022-10-22T03:53:28.896Z,18.15
2022-10-22T03:56:31.154Z,21.02
2022-10-22T03:59:37.209Z,18.60
2022-10-22T04:02:39.460Z,16.70
2022-10-22T04:05:41.637Z,16.13
2022-10-22T04:08:44.289Z,17.27
2022-10-22T04:11:46.458Z,16.85
2022-10-22T04:14:48.689Z,18.75
2022-10-22T04:17:50.894Z,16.80
2022-10-22T04:20:53.130Z,16.67
2022-10-22T04:23:55.688Z,18.20
2022-10-22T04:26:57.983Z,16.02
2022-10-22T04:30:00.650Z,16.05
2022-10-22T04:33:02.953Z,16.47
2022-10-22T04:36:12.418Z,18.95
2022-10-22T04:39:14.815Z,17.10
2022-10-22T04:42:17.165Z,17.25
2022-10-22T04:45:19.343Z,17.85
2022-10-22T04:48:21.528Z,19.90
2022-10-22T04:51:24.957Z,17.30
2022-10-22T04:54:30.506Z,18.55
2022-10-22T04:57:35.180Z,17.27
2022-10-22T05:00:37.347Z,25.02
2022-10-22T05:03:39.635Z,17.63
2022-10-22T05:06:41.998Z,21.08
2022-10-22T05:09:44.288Z,21.80
2022-10-22T05:12:46.421Z,19.55
2022-10-22T05:15:48.581Z,17.00
2022-10-22T05:18:51.109Z,19.43
2022-10-22T05:21:54.317Z,22.05
2022-10-22T05:24:56.457Z,18.67
2022-10-22T05:28:00.290Z,18.10
2022-10-22T05:31:03.177Z,18.75
2022-10-22T05:34:05.355Z,21.03
2022-10-22T05:37:07.494Z,21.10
2022-10-22T05:40:19.583Z,21.27
2022-10-22T05:43:29.368Z,18.30
2022-10-22T05:46:34.356Z,18.38
2022-10-22T05:49:36.548Z,19.53
2022-10-22T05:52:38.955Z,26.73
2022-10-22T05:55:41.501Z,19.80
2022-10-22T05:58:44.514Z,19.45
2022-10-22T06:01:46.867Z,20.17
2022-10-22T06:04:49.339Z,20.47
2022-10-22T06:07:51.619Z,20.73
2022-10-22T06:10:53.967Z,20.88
2022-10-22T06:13:56.231Z,25.48
2022-10-22T06:16:59.726Z,21.17
2022-10-22T06:20:02.029Z,22.33
2022-10-22T06:23:04.295Z,21.73
2022-10-22T06:26:06.968Z,21.23
2022-10-22T06:29:09.581Z,21.30
2022-10-22T06:32:11.730Z,18.98
2022-10-22T06:35:14.018Z,20.67
2022-10-22T06:38:16.247Z,21.30
2022-10-22T06:41:18.763Z,21.27
2022-10-22T06:44:21.046Z,23.23
2022-10-22T06:47:23.297Z,20.75
2022-10-22T06:50:25.791Z,24.87
2022-10-22T06:53:28.015Z,18.73
2022-10-22T06:56:30.326Z,20.98
2022-10-22T06:59:32.766Z,17.85
2022-10-22T07:02:34.965Z,19.65
2022-10-22T07:05:37.092Z,17.10
2022-10-22T07:08:40.207Z,19.50
2022-10-22T07:11:44.087Z,19.77
2022-10-22T07:14:46.240Z,23.75
2022-10-22T07:17:48.494Z,17.77
2022-10-22T07:20:50.782Z,16.30
2022-10-22T07:23:53.219Z,18.35
2022-10-22T07:26:55.451Z,18.33
2022-10-22T07:30:01.110Z,21.77
2022-10-22T07:33:03.473Z,21.08
2022-10-22T07:36:07.531Z,17.57
2022-10-22T07:39:09.728Z,18.40
2022-10-22T07:42:11.879Z,17.38
2022-10-22T07:45:14.036Z,15.95
2022-10-22T07:48:16.816Z,20.60
2022-10-22T07:51:19.062Z,21.97
2022-10-22T07:54:21.245Z,18.23
2022-10-22T07:57:24.432Z,19.50
2022-10-22T08:00:26.654Z,19.45
2022-10-22T08:03:29.091Z,19.80
2022-10-22T08:06:31.486Z,19.13
2022-10-22T08:09:33.671Z,19.88
2022-10-22T08:12:36.141Z,20.77
2022-10-22T08:15:38.696Z,20.10
2022-10-22T08:18:40.908Z,22.25
2022-10-22T08:21:43.090Z,22.83
2022-10-22T08:24:45.419Z,19.00
2022-10-22T08:27:47.652Z,23.52
2022-10-22T08:30:49.866Z,19.55
2022-10-22T08:33:52.087Z,19.02
2022-10-22T08:36:54.230Z,19.07
2022-10-22T08:39:56.404Z,17.48
2022-10-22T08:42:58.878Z,19.10
2022-10-22T08:46:16.530Z,20.10
2022-10-22T08:49:24.336Z,17.65
2022-10-22T08:52:26.581Z,18.60
2022-10-22T08:55:28.789Z,17.40
2022-10-22T08:59:00.148Z,17.63
2022-10-22T09:02:02.981Z,15.57
2022-10-22T09:05:25.513Z,15.27
2022-10-22T09:08:28.096Z,18.67
2022-10-22T09:11:37.886Z,16.27
2022-10-22T09:14:40.188Z,15.68
2022-10-22T09:17:53.197Z,16.45
2022-10-22T09:20:58.905Z,18.90
2022-10-22T09:24:04.994Z,15.47
2022-10-22T09:27:17.944Z,15.43
2022-10-22T09:30:22.302Z,17.58
2022-10-22T09:33:25.722Z,17.05
2022-10-22T09:36:28.956Z,17.65
2022-10-22T09:39:36.801Z,16.90
2022-10-22T09:42:39.252Z,16.05
2022-10-22T09:45:42.252Z,16.33
2022-10-22T09:49:04.693Z,18.25
2022-10-22T09:52:21.823Z,19.48
2022-10-22T09:55:25.293Z,19.30
2022-10-22T09:58:27.847Z,19.95
2022-10-22T10:01:32.907Z,17.55
2022-10-22T10:04:36.343Z,17.92
2022-10-22T10:07:39.212Z,23.50
2022-10-22T10:10:44.155Z,21.13
2022-10-22T10:13:46.324Z,21.45
2022-10-22T10:16:58.875Z,18.13
2022-10-22T10:20:08.569Z,22.88
2022-10-22T10:23:25.896Z,18.65
2022-10-22T10:26:47.734Z,19.70
2022-10-22T10:29:52.959Z,18.30
2022-10-22T10:32:55.158Z,21.73
2022-10-22T10:36:06.821Z,22.00
2022-10-22T10:39:12.487Z,20.05
2022-10-22T10:42:26.869Z,18.23
2022-10-22T10:45:32.168Z,19.17
2022-10-22T10:49:00.919Z,19.55
2022-10-22T10:52:28.499Z,18.25
2022-10-22T10:55:32.916Z,21.35
2022-10-22T10:58:40.264Z,24.67
2022-10-22T11:01:47.213Z,17.65
2022-10-22T11:05:08.861Z,21.40
2022-10-22T11:08:13.742Z,17.08
2022-10-22T11:11:21.236Z,18.02
2022-10-22T11:14:30.053Z,18.63
2022-10-22T11:17:37.028Z,17.42
2022-10-22T11:20:42.559Z,20.48
2022-10-22T11:23:53.658Z,19.55
2022-10-22T11:27:03.443Z,19.40
2022-10-22T11:30:17.132Z,17.37
2022-10-22T11:33:21.852Z,16.98
2022-10-22T11:36:25.264Z,21.67
2022-10-22T11:39:31.286Z,18.83
2022-10-22T11:42:34.946Z,19.92
2022-10-22T11:45:38.492Z,18.60
2022-10-22T11:48:40.642Z,19.17
2022-10-22T11:51:43.560Z,21.15
2022-10-22T11:54:45.818Z,19.80
2022-10-22T11:57:48.274Z,18.85
2022-10-22T12:00:50.434Z,19.27
2022-10-22T12:03:58.772Z,21.00
2022-10-22T12:07:02.187Z,17.88
2022-10-22T12:10:18.563Z,21.20
2022-10-22T12:13:24.260Z,20.20
2022-10-22T12:16:37.881Z,17.80
2022-10-22T12:19:56.459Z,17.05
2022-10-22T12:23:01.019Z,21.27
2022-10-22T12:26:04.281Z,18.35
2022-10-22T12:29:10.438Z,22.63
2022-10-22T12:32:13.739Z,19.63
2022-10-22T12:35:18.005Z,20.25
2022-10-22T12:38:22.006Z,22.73
2022-10-22T12:41:30.689Z,21.58
2022-10-22T12:44:32.942Z,20.20
2022-10-22T12:47:35.233Z,20.33
2022-10-22T12:50:41.071Z,19.52
2022-10-22T12:53:45.377Z,17.77
2022-10-22T12:56:47.781Z,20.83
2022-10-22T12:59:51.330Z,17.23
2022-10-22T13:02:54.169Z,18.20
2022-10-22T13:05:56.392Z,19.35
2022-10-22T13:09:01.724Z,20.80
2022-10-22T13:12:05.054Z,18.65
2022-10-22T13:15:39.786Z,22.45
2022-10-22T13:18:43.755Z,22.20
2022-10-22T13:21:48.901Z,19.40
2022-10-22T13:24:51.478Z,20.42
2022-10-22T13:27:55.605Z,20.23
2022-10-22T13:30:59.390Z,21.60
2022-10-22T13:34:09.823Z,24.43
2022-10-22T13:37:14.088Z,26.80
2022-10-22T13:40:16.582Z,21.48
2022-10-22T13:43:19.497Z,20.33
2022-10-22T13:46:22.176Z,18.45
2022-10-22T13:49:24.344Z,20.00
2022-10-22T13:52:29.616Z,20.83
2022-10-22T13:55:31.996Z,22.30
2022-10-22T13:58:34.144Z,27.23
2022-10-22T14:01:36.917Z,25.27
2022-10-22T14:04:40.016Z,22.77
2022-10-22T14:07:42.467Z,21.98
2022-10-22T14:10:44.930Z,24.40
2022-10-22T14:13:47.204Z,22.77
2022-10-22T14:16:49.924Z,22.50
2022-10-22T14:19:52.274Z,21.70
2022-10-22T14:22:55.135Z,25.80
2022-10-22T14:25:57.967Z,25.30
2022-10-22T14:29:15.714Z,24.77
2022-10-22T14:32:21.891Z,28.70
2022-10-22T14:35:24.433Z,23.50
2022-10-22T14:38:26.625Z,25.75
2022-10-22T14:41:29.058Z,24.80
2022-10-22T14:44:31.241Z,23.50
2022-10-22T14:47:33.689Z,26.75
2022-10-22T14:50:35.983Z,24.23
2022-10-22T14:53:38.206Z,27.95
2022-10-22T14:56:40.422Z,24.80
2022-10-22T14:59:43.321Z,22.05
2022-10-22T15:02:46.181Z,25.83
2022-10-22T15:05:51.158Z,24.53
2022-10-22T15:08:53.360Z,26.42
2022-10-22T15:11:55.581Z,26.95
2022-10-22T15:14:57.765Z,23.48
2022-10-22T15:17:59.999Z,24.65
2022-10-22T15:21:03.750Z,29.40
2022-10-22T15:24:06.289Z,27.00
2022-10-22T15:27:09.110Z,27.45
2022-10-22T15:30:11.542Z,27.17
2022-10-22T15:33:13.771Z,28.00
2022-10-22T15:36:16.192Z,26.77
2022-10-22T15:39:18.681Z,24.50
2022-10-22T15:42:20.913Z,24.45
2022-10-22T15:45:25.037Z,23.27
2022-10-22T15:48:27.198Z,28.17
2022-10-22T15:51:29.352Z,27.40
2022-10-22T15:54:31.861Z,27.27
2022-10-22T15:57:34.049Z,24.13
2022-10-22T16:00:36.329Z,26.48
2022-10-22T16:03:38.742Z,25.80
2022-10-22T16:06:42.529Z,25.20
2022-10-22T16:09:44.703Z,31.00
2022-10-22T16:12:47.188Z,29.70
2022-10-22T16:15:49.792Z,30.23
2022-10-22T16:18:52.287Z,31.13
2022-10-22T16:21:55.524Z,27.13
2022-10-22T16:24:57.811Z,29.70
2022-10-22T16:28:00.126Z,32.60
2022-10-22T16:31:06.394Z,29.25
2022-10-22T16:34:08.602Z,29.65
2022-10-22T16:37:11.442Z,29.40
2022-10-22T16:40:13.676Z,27.10
2022-10-22T16:43:16.053Z,28.02
2022-10-22T16:46:19.247Z,27.10
2022-10-22T16:49:21.736Z,27.83
2022-10-22T16:52:23.910Z,30.83
2022-10-22T16:55:26.236Z,31.92
2022-10-22T16:58:28.632Z,32.53
2022-10-22T17:01:31.445Z,31.05
2022-10-22T17:04:34.331Z,34.67
2022-10-22T17:07:36.706Z,40.33
2022-10-22T17:10:39.284Z,33.40
2022-10-22T17:13:41.950Z,36.40
2022-10-22T17:16:44.961Z,35.30
2022-10-22T17:19:47.266Z,37.28
2022-10-22T17:22:49.765Z,39.17
2022-10-22T17:25:57.470Z,43.15
2022-10-22T17:29:00.057Z,41.00
2022-10-22T17:32:03.265Z,38.38
2022-10-22T17:35:06.768Z,42.80
2022-10-22T17:38:09.108Z,39.30
2022-10-22T17:41:17.498Z,40.03
2022-10-22T17:44:20.076Z,39.75
2022-10-22T17:47:22.403Z,39.88
2022-10-22T17:50:24.778Z,42.33
2022-10-22T17:53:27.352Z,42.30
2022-10-22T17:56:30.322Z,43.40
2022-10-22T17:59:33.097Z,40.47
2022-10-22T18:02:35.454Z,41.97
2022-10-22T18:05:37.850Z,43.70
2022-10-22T18:08:40.568Z,36.87
2022-10-22T18:11:43.070Z,38.63
2022-10-22T18:14:47.165Z,42.55
2022-10-22T18:17:50.644Z,40.53
2022-10-22T18:20:53.216Z,40.65
2022-10-22T18:23:55.948Z,44.00
2022-10-22T18:26:58.286Z,41.70
2022-10-22T18:30:00.574Z,43.38
2022-10-22T18:33:02.943Z,41.00
2022-10-22T18:36:06.537Z,37.28
2022-10-22T18:39:08.894Z,46.13
2022-10-22T18:42:11.193Z,41.60
2022-10-22T18:45:13.475Z,40.67
2022-10-22T18:48:19.744Z,39.90
2022-10-22T18:51:22.516Z,42.38
2022-10-22T18:54:25.015Z,42.83
2022-10-22T18:57:27.377Z,41.28
2022-10-22T19:00:30.801Z,46.67
2022-10-22T19:03:33.454Z,44.30
2022-10-22T19:06:37.157Z,48.92
2022-10-22T19:09:40.405Z,44.13
2022-10-22T19:12:42.722Z,53.30
2022-10-22T19:15:45.076Z,51.10
2022-10-22T19:18:47.714Z,46.80
2022-10-22T19:21:50.886Z,51.38
2022-10-22T19:24:53.323Z,47.63
2022-10-22T19:27:55.685Z,47.47
2022-10-22T19:30:58.763Z,50.47
2022-10-22T19:34:01.874Z,53.03
2022-10-22T19:37:04.933Z,45.95
2022-10-22T19:40:08.218Z,55.73
2022-10-22T19:43:10.752Z,50.92
2022-10-22T19:46:13.375Z,51.63
2022-10-22T19:49:18.946Z,53.38
2022-10-22T19:52:24.587Z,52.30
2022-10-22T19:55:27.162Z,52.30
2022-10-22T19:58:29.331Z,54.15
2022-10-22T20:01:32.084Z,50.83
2022-10-22T20:04:35.948Z,65.38
2022-10-22T20:07:38.433Z,59.40
2022-10-22T20:10:41.738Z,52.87
2022-10-22T20:13:46.632Z,58.15
2022-10-22T20:16:52.076Z,54.05
2022-10-22T20:19:54.289Z,52.90
2022-10-22T20:22:56.564Z,51.80
2022-10-22T20:25:58.762Z,53.57
2022-10-22T20:29:01.182Z,51.88
2022-10-22T20:32:05.440Z,49.72
2022-10-22T20:35:10.408Z,60.30
2022-10-22T20:38:14.299Z,58.30
2022-10-22T20:41:18.686Z,51.67
2022-10-22T20:47:51.390Z,58.63
2022-10-22T20:50:54.532Z,50.22
2022-10-22T20:53:56.770Z,56.80
2022-10-22T20:56:59.024Z,54.40
2022-10-22T21:00:01.238Z,55.92
2022-10-22T21:03:03.421Z,58.25
2022-10-22T21:06:06.237Z,58.40
2022-10-22T21:09:12.695Z,55.28
2022-10-22T21:12:14.961Z,55.17
2022-10-22T21:15:17.185Z,55.47
2022-10-22T21:18:19.356Z,63.13
2022-10-22T21:21:21.603Z,55.30
2022-10-22T21:24:24.861Z,51.30
2022-10-22T21:27:27.157Z,50.67
2022-10-22T21:30:29.390Z,48.97
2022-10-22T21:33:31.879Z,50.92
2022-10-22T21:36:34.064Z,52.72
2022-10-22T21:39:41.073Z,48.35
2022-10-22T21:42:44.679Z,46.67
2022-10-22T21:45:46.872Z,47.13
2022-10-22T21:48:53.093Z,47.42
2022-10-22T21:51:55.409Z,53.95
2022-10-22T21:54:57.656Z,49.78
2022-10-22T21:57:59.829Z,49.77
2022-10-22T22:01:02.151Z,55.47
2022-10-22T22:04:04.435Z,53.30
2022-10-22T22:07:06.585Z,49.08
2022-10-22T22:10:09.979Z,53.47
2022-10-22T22:13:12.259Z,54.03
2022-10-22T22:16:17.298Z,63.28
2022-10-22T22:19:19.468Z,60.53
2022-10-22T22:22:21.670Z,63.10
2022-10-22T22:25:24.213Z,62.08
2022-10-22T22:28:26.760Z,57.43
2022-10-22T22:31:30.620Z,64.38
2022-10-22T22:34:33.141Z,66.78
2022-10-22T22:37:35.288Z,62.30
2022-10-22T22:40:41.233Z,56.90
2022-10-22T22:43:44.350Z,59.03
2022-10-22T22:46:46.568Z,50.97
2022-10-22T22:49:48.761Z,61.63
2022-10-22T22:52:50.913Z,50.47
2022-10-22T22:56:02.036Z,49.53
2022-10-22T22:59:04.988Z,38.67
2022-10-22T23:02:07.460Z,29.85
2022-10-22T23:05:09.990Z,43.92
2022-10-22T23:08:12.158Z,42.10
2022-10-22T23:11:14.486Z,44.00
2022-10-22T23:14:17.742Z,47.63
2022-10-22T23:17:20.028Z,40.45
2022-10-22T23:20:22.185Z,41.90
2022-10-22T23:23:24.389Z,59.58
2022-10-22T23:26:27.856Z,42.97
2022-10-22T23:29:31.067Z,46.10
2022-10-22T23:32:33.215Z,51.33
2022-10-22T23:35:38.986Z,51.63
2022-10-22T23:38:41.629Z,56.90
2022-10-22T23:41:44.187Z,58.53
2022-10-22T23:44:46.703Z,54.10
2022-10-22T23:47:48.856Z,49.47
2022-10-22T23:53:59.906Z,54.13
2022-10-22T23:57:02.120Z,40.72
